MST,Max TemperatureF,Mean TemperatureF,Min TemperatureF,Max Dew PointF,MeanDew PointF,Min DewpointF,Max Humidity, Mean Humidity, Min Humidity, Max Sea Level PressureIn, Mean Sea Level PressureIn, Min Sea Level PressureIn, Max VisibilityMiles, Mean VisibilityMiles, Min VisibilityMiles, Max Wind SpeedMPH, Mean Wind SpeedMPH, Max Gust SpeedMPH,PrecipitationIn, CloudCover, Events, WindDirDegrees
2012-12-1,73,56,42,39,36,34,76,49,25,30.17,30.13,30.08,10,10,10,6,4,,0.00,0,,114
2012-12-2,75,60,44,32,30,27,57,32,17,30.13,30.09,30.05,10,10,10,8,4,,0.00,0,,138
2012-12-3,73,58,42,37,34,30,61,37,25,30.19,30.13,30.09,10,10,10,8,6,,0.00,0,,313
2012-12-4,77,60,44,37,36,34,66,35,22,30.27,30.19,30.15,10,10,10,10,7,,0.00,0,,338
2012-12-5,80,62,44,34,32,30,62,32,16,30.16,30.08,30.00,10,10,10,10,5,,0.00,0,,121
2012-12-6,77,60,42,34,31,28,61,33,18,29.98,29.92,29.86,10,10,10,8,3,,0.00,0,,303
2012-12-7,73,58,42,36,33,28,61,38,23,29.98,29.94,29.90,10,10,10,12,2,,0.00,0,,275
2012-12-8,71,55,39,36,33,32,75,43,23,30.00,29.95,29.90,10,10,10,10,3,,0.00,0,,279
2012-12-9,69,53,37,30,23,18,60,28,14,30.07,30.03,29.98,10,10,10,13,4,,0.00,0,,290
2012-12-10,59,47,35,18,12,5,48,27,14,30.15,30.09,30.03,10,10,10,9,4,,0.00,0,,272
2012-12-11,66,49,32,12,9,3,35,20,11,30.11,30.05,29.99,10,10,10,10,4,,0.00,0,,81
2012-12-12,73,54,35,25,18,9,33,21,15,30.07,30.00,29.90,10,10,10,12,6,18,0.00,0,,137
2012-12-13,69,56,42,52,33,23,82,42,24,29.98,29.92,29.81,10,10,5,18,8,30,0.00,1,Rain,146
2012-12-14,53,48,42,41,39,37,87,69,54,30.05,29.97,29.82,10,10,5,18,10,23,0.00,5,Rain,202
2012-12-15,57,54,50,48,41,39,82,63,54,30.06,30.01,29.97,10,10,10,18,12,23,0.00,7,,193
2012-12-16,53,50,44,46,37,32,100,64,44,30.17,30.12,30.07,10,9,5,10,5,,0.00,2,Rain,321
2012-12-17,60,48,35,39,37,36,100,66,39,30.21,30.12,30.04,10,10,10,7,3,,0.00,0,,172
2012-12-18,68,54,39,46,43,39,100,66,35,29.98,29.85,29.79,10,10,10,20,6,23,0.00,0,,143
2012-12-19,48,45,41,36,30,23,71,55,37,30.26,30.15,29.97,10,10,10,14,8,17,0.00,1,,296
2012-12-20,62,47,32,32,25,18,100,47,19,30.31,30.23,30.14,10,10,10,20,8,26,0.00,0,,102
2012-12-21,69,56,42,32,21,16,44,26,15,30.14,30.10,30.05,10,10,10,20,13,22,0.00,0,,74
2012-12-22,71,58,46,37,35,32,62,42,25,30.12,30.09,30.06,10,10,10,10,7,,0.00,0,,141
2012-12-23,66,52,37,37,35,32,93,54,28,30.18,30.09,30.04,10,10,10,8,3,,0.00,0,,296
2012-12-24,62,52,42,39,36,34,81,50,34,30.09,29.99,29.92,10,10,10,20,6,25,0.00,1,,255
2012-12-25,53,47,41,37,28,23,87,48,30,30.12,30.05,30.02,10,10,10,8,3,,0.00,0,,287
2012-12-26,64,50,37,30,23,14,75,36,15,29.96,29.90,29.84,10,10,10,13,4,,0.00,0,,11
2012-12-27,55,42,30,34,30,25,87,63,31,29.99,29.92,29.88,10,10,10,21,5,30,0.00,2,,255
2012-12-28,53,40,28,32,28,27,93,60,35,30.17,30.12,30.08,10,10,10,9,2,,0.00,0,,306
2012-12-29,62,47,32,27,23,19,80,43,19,30.12,30.05,29.96,10,10,10,15,9,16,0.00,0,,92
2012-12-30,59,47,35,36,28,23,75,50,25,29.94,29.89,29.84,10,10,10,18,9,30,0.00,2,,251
2012-12-31,50,44,37,39,33,27,100,67,46,30.18,30.13,30.04,10,10,10,9,4,,0.00,4,,272